Time;durP1;ratioP1;P1;durP2;ratioP2;P2;SDS_P1;SDS_P2;PMS_P1;PMS_P2;Temp;Humidity;BMP_temperature;BMP_pressure;BME280_temperature;BME280_humidity;BME280_pressure;Samples;Min_cycle;Max_cycle;Signal;HPM_P1;HPM_P2
2022/06/10 00:01:05;;;;;;;5.40;3.40;;;17.90;70.60;;;20.29;54.15;101936.19;4803759;29;20205;-59
2022/06/10 00:03:32;;;;;;;7.13;3.30;;;17.90;71.00;;;20.23;54.02;101943.16;4676104;30;20211;-60
2022/06/10 00:05:59;;;;;;;5.20;4.00;;;17.80;71.20;;;20.16;53.95;101942.31;4732260;30;20792;-59
2022/06/10 00:11:06;;;;;;;6.90;3.87;;;17.80;71.10;;;20.11;54.35;101939.44;5171784;27;20629;-57
2022/06/10 00:13:37;;;;;;;4.93;2.93;;;17.70;71.20;;;20.10;53.75;101939.66;5105425;28;20604;-57
2022/06/10 00:16:06;;;;;;;8.90;3.70;;;17.60;71.10;;;20.09;53.95;101946.84;5056234;28;20296;-59
2022/06/10 00:18:34;;;;;;;7.40;3.37;;;17.60;71.30;;;20.07;53.94;101938.22;5047598;28;20218;-58
2022/06/10 00:21:05;;;;;;;5.57;2.83;;;17.60;71.20;;;20.06;53.82;101941.91;4951931;28;20229;-60
2022/06/10 00:23:31;;;;;;;5.23;3.27;;;17.50;71.20;;;20.07;54.16;101940.06;4877892;29;20208;-60
2022/06/10 00:25:58;;;;;;;4.90;3.80;;;17.60;72.20;;;20.07;53.63;101938.22;4825867;29;20305;-60
2022/06/10 00:31:16;;;;;;;4.73;3.30;;;17.50;71.20;;;20.12;53.59;101951.81;5171697;27;20629;-58
2022/06/10 00:33:50;;;;;;;5.53;3.43;;;17.50;71.40;;;20.13;53.95;101948.06;5132777;27;20274;-58
2022/06/10 00:36:17;;;;;;;3.97;3.00;;;17.60;71.30;;;20.13;53.79;101949.97;5138082;27;20558;-61
2022/06/10 00:38:44;;;;;;;6.33;3.57;;;17.60;71.30;;;20.13;53.63;101949.97;5119331;28;20663;-56
2022/06/10 00:41:11;;;;;;;5.60;2.57;;;17.60;71.40;;;20.11;53.99;101947.47;5087603;28;20528;-56
2022/06/10 00:44:01;;;;;;;4.27;3.03;;;17.60;71.50;;;20.11;53.79;101955.50;5016028;28;20553;-60
2022/06/10 00:46:34;;;;;;;6.87;3.67;;;17.60;71.40;;;20.16;53.60;101952.19;4960404;28;20230;-58
2022/06/10 00:49:00;;;;;;;6.13;3.13;;;17.60;71.40;;;20.23;53.89;101958.38;4725497;30;20547;-57
2022/06/10 00:51:26;;;;;;;8.70;3.23;;;17.60;71.40;;;20.30;53.85;101953.06;4664548;30;20222;-58
2022/06/10 00:56:28;;;;;;;7.47;3.20;;;17.70;71.60;;;20.40;53.08;101956.09;5152489;27;20861;-59
2022/06/10 00:59:03;;;;;;;6.53;3.40;;;17.80;71.00;;;20.45;52.51;101953.63;5111404;28;20283;-58
2022/06/10 01:01:59;;;;;;;7.50;3.47;;;17.80;70.70;;;20.47;52.57;101960.41;5015485;28;20360;-60
2022/06/10 01:04:27;;;;;;;6.27;3.20;;;17.80;70.50;;;20.51;52.48;101960.81;5019417;28;20218;-60
2022/06/10 01:06:57;;;;;;;5.57;2.97;;;17.80;70.30;;;20.54;52.85;101965.75;5025173;28;20615;-60
2022/06/10 01:09:26;;;;;;;6.63;3.00;;;17.80;70.30;;;20.57;52.24;101970.66;5045340;28;20204;-58
2022/06/10 01:12:42;;;;;;;4.07;2.43;;;17.80;69.80;;;20.50;52.16;101970.69;5059484;28;20253;-60
2022/06/10 01:15:09;;;;;;;4.80;2.50;;;17.90;69.90;;;20.52;51.86;101970.47;4847909;29;20321;-56
2022/06/10 01:20:27;;;;;;;9.47;4.27;;;17.80;68.90;;;20.31;52.29;101976.91;5171821;27;20625;-59
2022/06/10 01:23:49;;;;;;;4.77;2.90;;;17.90;68.90;;;20.06;52.55;101968.66;5113361;28;20195;-59
2022/06/10 01:30:53;;;;;;;6.50;3.83;;;17.70;68.80;;;19.97;53.16;101969.06;4941493;28;20203;-58
2022/06/10 01:33:38;;;;;;;8.50;3.70;;;17.60;69.80;;;20.02;53.01;101967.44;4840110;29;20213;-58
2022/06/10 01:36:20;;;;;;;4.20;2.87;;;17.50;69.90;;;20.06;53.20;101963.31;4815032;29;20228;-58
2022/06/10 01:38:47;;;;;;;6.27;2.83;;;17.50;70.10;;;20.13;53.19;101966.78;4663114;30;20319;-59
2022/06/10 01:44:03;;;;;;;9.70;3.20;;;17.50;70.20;;;20.23;52.28;101967.25;5164221;27;21141;-58
2022/06/10 01:46:35;;;;;;;9.10;3.10;;;17.60;69.90;;;20.21;52.33;101968.44;5094785;28;20231;-59
2022/06/10 01:49:11;;;;;;;5.73;3.23;;;17.60;69.50;;;20.09;52.29;101957.56;5086510;28;20272;-58
2022/06/10 01:51:53;;;;;;;8.50;3.37;;;17.60;69.40;;;19.93;52.18;101960.66;5049459;28;20654;-60
2022/06/10 01:54:31;;;;;;;6.03;3.63;;;17.50;69.10;;;19.78;52.81;101962.69;4957691;28;20210;-58
2022/06/10 01:57:06;;;;;;;7.17;3.17;;;17.40;69.30;;;19.70;52.70;101962.09;4808853;29;20204;-61
2022/06/10 01:59:41;;;;;;;6.13;3.10;;;17.30;69.30;;;19.62;52.95;101959.59;4769277;29;20573;-60
2022/06/10 02:04:54;;;;;;;4.77;3.10;;;17.20;69.50;;;19.43;53.64;101958.53;5166271;27;20646;-60
2022/06/10 02:07:30;;;;;;;6.30;3.67;;;17.00;70.40;;;19.32;53.86;101959.94;5101569;28;20279;-58
2022/06/10 02:10:03;;;;;;;4.37;3.70;;;16.90;71.00;;;19.18;54.23;101968.09;5068482;28;20227;-58
2022/06/10 02:12:37;;;;;;;5.83;3.33;;;16.80;71.30;;;19.05;54.77;101965.38;5077723;28;20197;-59
2022/06/10 02:15:14;;;;;;;6.97;3.60;;;16.70;71.80;;;18.93;55.01;101965.97;5037897;28;20221;-59
2022/06/10 02:17:48;;;;;;;4.60;3.17;;;16.60;72.00;;;18.84;55.41;101972.50;4949986;28;20343;-60
2022/06/10 02:20:26;;;;;;;5.87;3.70;;;16.50;72.40;;;18.70;55.78;101964.63;4950461;28;20211;-59
2022/06/10 02:24:08;;;;;;;4.70;3.67;;;16.40;72.90;;;18.42;56.87;101967.31;4937116;28;20229;-59
2022/06/10 02:26:34;;;;;;;6.03;3.70;;;16.30;73.40;;;18.40;56.63;101974.66;4690272;29;20241;-58
2022/06/10 02:31:44;;;;;;;6.03;3.83;;;16.20;73.40;;;18.35;56.46;101970.94;5172263;27;21156;-60
2022/06/10 02:34:12;;;;;;;3.57;3.17;;;16.00;73.70;;;18.39;56.58;101973.03;5133966;27;20203;-60
2022/06/10 02:36:51;;;;;;;7.33;4.00;;;16.00;74.00;;;18.40;56.60;101971.19;5118141;27;20191;-60
2022/06/10 02:39:30;;;;;;;7.87;3.80;;;15.90;74.20;;;18.32;56.98;101966.00;5121899;28;20199;-60
2022/06/10 02:42:14;;;;;;;6.37;4.33;;;15.90;74.70;;;18.20;57.11;101973.72;5073864;28;20268;-60
2022/06/10 02:44:54;;;;;;;5.10;4.60;;;15.80;74.60;;;18.12;57.31;101972.00;4996236;28;20231;-59
2022/06/10 02:47:30;;;;;;;6.63;4.37;;;15.80;74.80;;;18.10;57.30;101973.22;4834457;29;20215;-58
2022/06/10 02:49:56;;;;;;;7.23;4.10;;;15.70;74.80;;;18.05;57.35;101971.13;4626431;30;20299;-62
2022/06/10 02:52:22;;;;;;;6.03;4.93;;;15.70;75.00;;;18.03;57.53;101975.00;4563048;30;20674;-59
2022/06/10 03:03:19;;;;;;;9.83;6.50;;;15.50;75.40;;;17.78;57.81;101985.22;5086872;28;20189;-60
2022/06/10 03:06:00;;;;;;;8.70;5.53;;;15.40;75.30;;;17.76;57.82;101986.47;5105165;28;20203;-60
2022/06/10 03:08:35;;;;;;;8.40;5.50;;;15.40;75.40;;;17.76;57.78;101991.78;5029556;28;20268;-61
2022/06/10 03:11:15;;;;;;;6.50;5.23;;;15.40;75.40;;;17.77;57.80;101993.41;4929113;28;20276;-60
2022/06/10 03:14:06;;;;;;;7.93;5.47;;;15.40;75.40;;;17.76;57.55;102002.44;4872418;29;20200;-61
2022/06/10 03:16:50;;;;;;;10.20;5.30;;;15.40;75.70;;;17.78;57.63;102000.41;4743501;29;20258;-61
2022/06/10 03:22:10;;;;;;;8.13;4.97;;;15.40;75.80;;;17.74;57.42;101993.78;5171650;27;20900;-58
2022/06/10 03:24:52;;;;;;;8.67;4.07;;;15.30;75.50;;;17.74;57.52;101999.13;5104729;28;20262;-60
2022/06/10 03:27:28;;;;;;;9.07;4.80;;;15.30;75.50;;;17.71;57.09;101996.84;5103725;27;20202;-60
2022/06/10 03:30:02;;;;;;;5.83;4.00;;;15.30;75.40;;;17.70;57.58;102000.53;5118423;27;20186;-57
2022/06/10 03:32:39;;;;;;;7.30;4.40;;;15.30;75.50;;;17.70;57.21;101997.84;5093155;28;20193;-57
2022/06/10 03:35:13;;;;;;;7.20;3.90;;;15.20;75.20;;;17.70;57.30;102004.03;5105174;27;20219;-59
2022/06/10 03:37:42;;;;;;;7.67;4.97;;;15.20;75.30;;;17.72;57.18;102007.31;4976525;28;20281;-60
2022/06/10 03:40:08;;;;;;;5.10;4.30;;;15.30;75.20;;;17.74;57.27;102005.28;4753879;30;20231;-60
2022/06/10 03:45:19;;;;;;;7.43;4.30;;;15.30;75.20;;;17.73;56.76;102010.81;5162501;27;20980;-61
2022/06/10 03:47:46;;;;;;;6.40;4.80;;;15.30;74.80;;;17.70;57.03;102013.84;5129902;28;20640;-60
2022/06/10 03:50:21;;;;;;;7.10;4.40;;;15.20;74.50;;;17.69;56.61;102018.34;5107106;28;20212;-60
2022/06/10 03:52:48;;;;;;;8.83;4.20;;;15.30;74.30;;;17.70;56.63;102019.16;5071375;28;20685;-60
2022/06/10 03:55:18;;;;;;;7.97;5.23;;;15.30;74.00;;;17.67;56.18;102024.88;5089510;28;20247;-60
2022/06/10 03:57:47;;;;;;;7.00;5.47;;;15.20;73.60;;;17.73;56.16;102018.78;5095664;28;20651;-59
2022/06/10 04:00:21;;;;;;;10.73;5.73;;;15.20;73.50;;;17.74;55.91;102025.75;5081701;28;20598;-58
2022/06/10 04:02:48;;;;;;;6.97;4.03;;;15.30;73.40;;;17.81;55.92;102021.31;4953292;28;20292;-60
2022/06/10 04:05:29;;;;;;;7.57;4.50;;;15.30;73.20;;;17.85;55.72;102022.59;4836822;29;20775;-60
2022/06/10 04:10:34;;;;;;;5.23;3.93;;;15.40;73.20;;;17.96;55.40;102030.06;5171665;27;20637;-60
2022/06/10 04:13:01;;;;;;;7.70;4.20;;;15.40;72.90;;;17.99;55.04;102027.03;5150525;27;20186;-60
2022/06/10 04:15:27;;;;;;;7.13;4.53;;;15.40;72.50;;;18.01;55.05;102027.66;5144020;27;20222;-62
2022/06/10 04:17:57;;;;;;;9.60;3.83;;;15.50;72.40;;;18.01;54.89;102028.50;5148854;27;20194;-58
2022/06/10 04:20:28;;;;;;;6.73;3.70;;;15.50;72.30;;;18.05;55.24;102034.25;5140123;27;20199;-60
2022/06/10 04:22:55;;;;;;;7.10;3.87;;;15.50;72.30;;;18.08;54.85;102024.06;5141882;27;20584;-60
2022/06/10 04:25:37;;;;;;;7.97;4.00;;;15.50;72.20;;;18.10;54.92;102037.19;5015723;28;20293;-59
2022/06/10 04:28:49;;;;;;;6.70;4.47;;;15.60;73.10;;;18.08;54.44;102036.53;4907870;29;20281;-60
2022/06/10 04:32:30;;;;;;;8.67;4.20;;;15.60;71.80;;;18.11;54.73;102033.50;5168250;27;20639;-58
2022/06/10 04:34:56;;;;;;;7.43;4.03;;;15.60;71.70;;;18.16;54.55;102036.44;5127515;28;20693;-60
2022/06/10 04:37:25;;;;;;;6.30;4.20;;;15.60;71.60;;;18.22;54.50;102035.63;5129497;28;20209;-60
2022/06/10 04:39:51;;;;;;;6.63;3.97;;;15.70;71.70;;;18.25;54.10;102035.25;5128777;28;20191;-60
2022/06/10 04:42:18;;;;;;;6.10;3.90;;;15.70;71.60;;;18.27;54.36;102035.88;5104706;28;20193;-61
2022/06/10 04:44:45;;;;;;;11.20;4.93;;;15.70;71.50;;;18.32;54.37;102035.31;5106552;28;20244;-58
2022/06/10 04:47:12;;;;;;;8.60;4.67;;;15.70;71.40;;;18.32;54.15;102029.97;5124725;28;20193;-62
2022/06/10 04:49:40;;;;;;;6.60;4.33;;;15.80;71.50;;;18.31;54.26;102028.31;5032418;28;20610;-58
2022/06/10 04:52:07;;;;;;;6.20;3.90;;;15.80;71.30;;;18.31;54.58;102031.81;4963812;28;20222;-60
2022/06/10 04:57:08;;;;;;;6.60;4.23;;;15.80;71.30;;;18.36;54.22;102042.72;5213883;27;20374;-59
2022/06/10 04:59:35;;;;;;;7.30;4.60;;;15.90;71.20;;;18.37;54.19;102033.72;5172717;27;20201;-59
2022/06/10 05:02:02;;;;;;;7.83;4.30;;;15.90;71.80;;;18.41;54.05;102042.97;5191630;27;20193;-60
2022/06/10 05:04:30;;;;;;;6.00;4.30;;;15.90;70.90;;;18.45;53.91;102046.06;5188331;27;20514;-61
2022/06/10 05:06:57;;;;;;;10.17;4.37;;;16.00;71.00;;;18.44;54.12;102039.09;5130758;27;20207;-59
2022/06/10 05:09:24;;;;;;;6.87;4.30;;;16.00;70.90;;;18.49;53.98;102042.88;5119560;27;20621;-59
2022/06/10 05:11:50;;;;;;;8.07;4.37;;;16.00;70.90;;;18.52;54.06;102050.47;5062848;28;20663;-61
2022/06/10 05:15:48;;;;;;;7.10;3.97;;;16.00;71.00;;;18.51;53.94;102046.16;4950913;28;20233;-59
2022/06/10 05:20:54;;;;;;;7.10;4.50;;;16.10;70.80;;;18.64;53.54;102051.56;5172430;27;20959;-60
2022/06/10 05:23:47;;;;;;;8.83;4.23;;;16.20;70.50;;;18.72;53.70;102050.59;5079595;28;20303;-60
2022/06/10 05:26:16;;;;;;;7.53;4.10;;;16.30;70.50;;;18.85;53.37;102043.50;5080234;28;20221;-61
2022/06/10 05:28:44;;;;;;;6.73;3.80;;;16.30;70.40;;;18.94;53.06;102046.84;5109416;28;20302;-62
2022/06/10 05:31:11;;;;;;;8.20;4.23;;;16.40;70.20;;;18.97;53.09;102042.97;5101911;28;20237;-61
2022/06/10 05:36:24;;;;;;;11.10;3.67;;;16.50;70.10;;;19.21;52.84;102047.78;5083349;28;20216;-59
2022/06/10 05:39:21;;;;;;;8.57;3.77;;;16.60;70.10;;;19.27;52.31;102041.66;4969997;28;20236;-58
2022/06/10 05:42:06;;;;;;;7.60;3.60;;;16.70;69.40;;;19.43;52.36;102046.66;5171080;27;20921;-60
2022/06/10 05:44:37;;;;;;;6.47;3.40;;;16.80;69.40;;;19.41;51.83;102046.06;5127581;28;20243;-60
2022/06/10 05:47:07;;;;;;;6.30;3.30;;;16.90;68.80;;;19.45;52.44;102052.63;5111009;28;20208;-59
2022/06/10 05:49:35;;;;;;;8.30;3.47;;;17.00;69.00;;;19.58;52.05;102056.19;5128792;27;20219;-59
2022/06/10 05:52:03;;;;;;;6.00;3.13;;;17.10;68.90;;;19.59;51.50;102048.97;5051591;28;20242;-59
2022/06/10 05:54:31;;;;;;;6.10;3.60;;;17.10;68.00;;;19.63;51.81;102058.25;5036225;28;20211;-59
2022/06/10 05:56:57;;;;;;;8.73;3.30;;;17.20;68.00;;;19.70;51.43;102058.28;4997422;28;20687;-60
2022/06/10 06:03:00;;;;;;;5.83;3.17;;;17.30;67.80;;;20.02;51.29;102052.16;5171709;27;20637;-58
2022/06/10 06:05:28;;;;;;;5.60;3.43;;;17.50;68.00;;;20.21;51.35;102062.88;5138955;27;20290;-60
2022/06/10 06:07:56;;;;;;;7.87;3.00;;;17.60;68.10;;;20.38;51.19;102059.81;5130182;27;20191;-59
2022/06/10 06:10:27;;;;;;;5.90;2.83;;;17.70;67.90;;;20.51;50.18;102059.81;5137174;27;20286;-61
2022/06/10 06:12:54;;;;;;;6.53;2.97;;;17.80;67.50;;;20.61;50.37;102054.88;5078122;28;20202;-60
2022/06/10 06:15:22;;;;;;;8.90;3.73;;;17.90;66.90;;;20.61;49.47;102054.88;5063680;28;20311;-59
2022/06/10 06:17:50;;;;;;;5.03;2.53;;;18.00;65.70;;;20.66;49.76;102052.38;5061866;28;20657;-64
2022/06/10 06:23:41;;;;;;;6.03;2.70;;;18.10;65.50;;;20.97;48.40;102051.69;5171318;27;20601;-59
2022/06/10 06:26:12;;;;;;;7.80;2.60;;;18.40;65.60;;;;;;5132653;27;20218;-61
2022/06/10 06:28:39;;;;;;;4.23;2.40;;;18.50;64.30;;;21.24;47.95;102048.75;5129067;28;20219;-60
2022/06/10 06:31:06;;;;;;;7.30;2.40;;;18.60;64.30;;;21.35;47.45;102055.28;5122649;27;20306;-61
2022/06/10 06:33:33;;;;;;;7.87;2.77;;;18.70;63.70;;;21.35;47.60;102060.63;5028516;28;20242;-60
2022/06/10 06:36:00;;;;;;;5.07;2.77;;;18.70;62.70;;;21.47;47.19;102054.41;4932168;28;20673;-63
2022/06/10 06:38:28;;;;;;;5.40;2.77;;;18.90;63.20;;;21.55;47.23;102056.84;4839265;29;20297;-61
2022/06/10 06:41:40;;;;;;;3.50;1.80;;;19.00;63.20;;;21.69;46.76;102054.91;4640862;30;20219;-59
2022/06/10 06:48:01;;;;;;;5.43;2.30;;;19.10;63.40;;;21.87;45.79;102052.34;5167267;27;20613;-61
2022/06/10 06:50:32;;;;;;;6.37;2.50;;;19.30;60.60;;;21.91;45.94;102050.06;5108416;28;20206;-60
2022/06/10 06:52:59;;;;;;;6.03;1.90;;;19.40;60.30;;;22.05;45.93;102056.97;5101373;28;20212;-64
2022/06/10 06:55:34;;;;;;;8.30;2.60;;;19.50;60.30;;;22.26;45.85;102053.91;5101425;27;20243;-58
2022/06/10 06:58:06;;;;;;;7.13;2.40;;;19.60;60.30;;;22.45;45.14;102052.91;5051070;28;20282;-59
2022/06/10 07:00:34;;;;;;;5.40;2.20;;;19.80;59.90;;;22.55;43.64;102055.94;4957189;28;20524;-62
2022/06/10 07:03:03;;;;;;;3.80;2.40;;;19.90;58.80;;;22.59;43.66;102049.06;4868881;29;20263;-60
2022/06/10 07:08:11;;;;;;;7.30;2.47;;;20.00;58.10;;;22.74;42.92;102049.56;5194850;27;20552;-61
2022/06/10 07:10:39;;;;;;;5.50;2.00;;;20.20;57.60;;;22.90;43.47;102061.59;5188692;27;20232;-59
2022/06/10 07:13:06;;;;;;;3.87;1.83;;;20.30;57.80;;;23.03;42.93;102055.25;5148595;27;20202;-60
2022/06/10 07:15:37;;;;;;;3.93;2.10;;;20.40;57.30;;;23.21;42.80;102055.22;5122301;27;20228;-59
2022/06/10 07:18:04;;;;;;;8.77;2.73;;;20.60;57.50;;;23.28;42.05;102061.34;5065836;28;20235;-60
2022/06/10 07:20:39;;;;;;;3.97;1.73;;;20.60;56.20;;;23.44;42.06;102058.06;4963869;28;20207;-60
2022/06/10 07:23:06;;;;;;;5.97;2.40;;;20.80;56.60;;;23.55;41.04;102065.38;4904132;29;20224;-61
2022/06/10 07:29:10;;;;;;;4.60;2.30;;;20.90;55.20;;;23.60;40.62;102049.38;5167136;27;20542;-60
2022/06/10 07:31:40;;;;;;;6.57;2.03;;;21.10;54.20;;;23.53;40.69;102048.66;5129612;27;20203;-61
2022/06/10 07:34:08;;;;;;;5.73;2.30;;;21.10;53.60;;;23.59;40.24;102050.41;5107916;27;20231;-59
2022/06/10 07:36:34;;;;;;;4.70;2.17;;;21.10;53.60;;;23.63;40.21;102048.91;5135999;27;20270;-62
2022/06/10 07:39:02;;;;;;;5.13;2.43;;;21.20;53.30;;;23.69;39.92;102045.31;5051071;28;20216;-61
2022/06/10 07:44:20;;;;;;;3.40;1.40;;;21.30;53.20;;;23.96;39.14;102045.75;4902530;28;20211;-60
2022/06/10 07:46:46;;;;;;;5.90;2.30;;;21.40;51.80;;;24.08;38.23;102043.94;4791931;29;20223;-59
2022/06/10 07:51:50;;;;;;;5.37;2.40;;;21.50;51.00;;;24.29;37.90;102045.22;5151617;27;21009;-59
2022/06/10 07:54:18;;;;;;;7.03;3.03;;;21.70;51.00;;;24.44;37.73;102053.69;5145557;27;20290;-59
2022/06/10 07:56:45;;;;;;;6.07;3.00;;;21.80;51.30;;;24.60;38.47;102050.28;5094019;28;20364;-59
2022/06/10 07:59:14;;;;;;;10.67;3.83;;;21.90;51.80;;;24.64;38.01;102038.81;4989309;28;20211;-60
2022/06/10 08:01:41;;;;;;;7.23;3.47;;;22.00;51.40;;;24.69;38.59;102046.16;5028880;28;20623;-61
2022/06/10 08:04:09;;;;;;;6.47;3.40;;;22.00;51.50;;;24.48;38.68;102044.06;4954449;28;20205;-62
2022/06/10 08:06:41;;;;;;;4.10;3.13;;;22.00;51.60;;;24.57;38.74;102053.44;4894987;28;20254;-60
2022/06/10 08:09:08;;;;;;;6.57;4.00;;;22.10;52.10;;;24.57;38.85;102045.34;4831524;29;20211;-66
2022/06/10 08:14:12;;;;;;;6.70;4.03;;;22.10;52.10;;;24.82;39.19;102041.38;5189032;27;20591;-60
2022/06/10 08:16:40;;;;;;;6.77;4.20;;;22.30;52.30;;;25.34;38.27;102039.47;5139919;27;20214;-59
2022/06/10 08:19:07;;;;;;;7.90;4.73;;;22.40;52.30;;;25.86;37.22;102042.09;5142116;27;20612;-60
2022/06/10 08:24:39;;;;;;;6.30;4.43;;;22.90;51.10;;;27.65;34.71;102040.56;4944775;28;20238;-59
2022/06/10 08:27:06;;;;;;;10.53;4.70;;;23.60;50.50;;;28.34;33.30;102036.81;4937203;28;20291;-60
2022/06/10 08:29:37;;;;;;;6.33;4.57;;;24.10;49.30;;;28.94;32.35;102033.66;4939913;28;20711;-62
2022/06/10 08:32:03;;;;;;;7.50;4.53;;;24.60;48.00;;;29.60;31.43;102036.63;4804000;29;20215;-62
2022/06/10 08:37:08;;;;;;;7.67;4.50;;;25.10;46.80;;;30.50;30.45;102024.94;5177201;27;21077;-62
2022/06/10 08:39:35;;;;;;;6.33;3.80;;;26.00;44.90;;;30.23;29.89;102033.38;5120566;27;20191;-59
2022/06/10 08:42:26;;;;;;;7.07;3.37;;;26.20;42.90;;;29.75;29.43;102039.31;5140344;27;20213;-60
2022/06/10 08:44:56;;;;;;;7.73;3.60;;;26.10;42.40;;;29.95;30.19;102042.88;5070090;28;20332;-61
2022/06/10 08:47:41;;;;;;;6.27;3.63;;;26.10;42.50;;;29.72;29.73;102045.28;4993898;28;20210;-62
2022/06/10 08:50:46;;;;;;;6.40;3.40;;;26.10;42.50;;;29.16;30.30;102053.28;4807258;29;20290;-59
2022/06/10 08:53:47;;;;;;;6.40;3.23;;;26.00;42.40;;;28.94;30.38;102049.13;4533445;30;20286;-63
2022/06/10 08:56:13;;;;;;;7.70;4.90;;;26.00;41.50;;;29.30;30.39;102049.03;4305261;32;20270;-62
2022/06/10 09:00:36;;;;;;;14.80;4.97;;;25.90;41.40;;;31.16;27.98;102041.84;5135088;27;20552;-60
2022/06/10 09:03:15;;;;;;;8.27;4.03;;;26.30;41.00;;;32.28;26.45;102045.44;5068506;28;20235;-61
2022/06/10 09:05:48;;;;;;;7.37;3.97;;;26.80;40.70;;;32.81;25.80;102027.94;5094535;28;20264;-61
2022/06/10 09:08:19;;;;;;;8.50;4.27;;;27.30;39.40;;;33.80;24.96;102040.50;5085738;28;20264;-62
2022/06/10 09:10:54;;;;;;;8.07;3.47;;;28.00;38.60;;;34.71;24.11;102034.22;5037020;28;20672;-58
2022/06/10 09:13:34;;;;;;;8.60;4.20;;;28.60;37.80;;;35.60;22.55;102029.00;4881469;29;20296;-57
2022/06/10 09:16:28;;;;;;;5.97;3.67;;;29.20;36.50;;;35.16;23.81;102039.88;4732885;29;20250;-61
2022/06/10 09:19:09;;;;;;;5.87;3.10;;;29.70;36.00;;;34.37;23.65;102042.00;4530398;31;20259;-59
2022/06/10 09:23:48;;;;;;;6.57;3.60;;;29.80;34.20;;;34.09;23.78;102048.50;5193639;27;20536;-58
2022/06/10 09:26:40;;;;;;;8.10;3.37;;;29.60;33.30;;;33.71;23.18;102053.22;5127397;27;20317;-60
2022/06/10 09:29:08;;;;;;;4.73;3.13;;;29.40;33.20;;;33.01;24.75;102043.25;5083726;28;20233;-60
2022/06/10 09:31:40;;;;;;;7.87;3.47;;;29.20;33.70;;;32.48;25.15;102039.75;5120023;27;20194;-61
2022/06/10 09:34:27;;;;;;;5.87;3.57;;;29.00;34.80;;;31.39;27.23;102038.44;5055994;28;20206;-59
2022/06/10 09:37:12;;;;;;;5.37;3.37;;;28.40;35.60;;;30.70;28.21;102036.56;4992858;28;20205;-59
2022/06/10 09:42:36;;;;;;;6.80;3.67;;;27.70;37.90;;;30.36;29.37;102040.97;4642674;30;20241;-59
2022/06/10 09:48:03;;;;;;;6.83;4.33;;;27.40;39.10;;;30.43;28.97;102057.81;5160866;27;20646;-61
2022/06/10 09:50:37;;;;;;;5.70;3.83;;;27.10;40.40;;;29.91;29.94;102062.72;5080059;28;20200;-62
2022/06/10 09:53:36;;;;;;;8.47;3.73;;;26.90;40.90;;;29.35;30.84;102062.63;5052465;28;20306;-60
2022/06/10 09:56:46;;;;;;;7.07;3.43;;;26.60;41.50;;;28.91;31.88;102072.16;5026893;28;20226;-59
2022/06/10 09:59:29;;;;;;;5.63;3.10;;;26.30;42.50;;;28.61;32.63;102066.56;4915956;29;20219;-64
2022/06/10 10:02:23;;;;;;;5.93;2.70;;;25.90;43.30;;;28.46;32.62;102074.56;4743222;29;20897;-60
2022/06/10 10:07:50;;;;;;;3.93;2.23;;;25.60;44.70;;;28.46;32.66;102063.72;5158790;27;20655;-60
2022/06/10 10:10:34;;;;;;;5.03;1.93;;;25.30;44.20;;;28.37;32.41;102062.59;5123471;27;20214;-59
2022/06/10 10:13:36;;;;;;;3.83;2.10;;;25.20;44.50;;;28.08;33.00;102057.50;5050721;28;20545;-61
2022/06/10 10:16:19;;;;;;;4.77;1.73;;;25.10;45.00;;;27.92;33.14;102057.59;5007355;28;20226;-61
2022/06/10 10:19:11;;;;;;;3.60;1.80;;;25.00;45.30;;;27.87;33.54;102061.06;4854414;29;20217;-61
2022/06/10 10:22:03;;;;;;;6.03;2.30;;;24.90;46.50;;;27.76;33.78;102053.94;4761736;29;20213;-61
2022/06/10 10:24:29;;;;;;;3.17;1.80;;;24.90;46.00;;;27.70;34.16;102062.25;4541702;31;23538;-60
2022/06/10 10:29:42;;;;;;;2.87;1.40;;;24.90;46.60;;;27.89;34.08;102067.03;5164859;27;20545;-62
2022/06/10 10:32:15;;;;;;;2.23;1.60;;;24.90;47.00;;;27.85;34.48;102074.06;5112062;28;20206;-61
2022/06/10 10:35:08;;;;;;;2.03;1.23;;;24.90;46.90;;;27.73;34.59;102065.28;5119615;28;20306;-61
2022/06/10 10:37:36;;;;;;;3.90;1.90;;;24.80;47.20;;;27.47;35.31;102066.09;5081688;28;20242;-61
2022/06/10 10:40:16;;;;;;;4.10;2.57;;;24.70;47.60;;;27.45;35.60;102073.63;5024003;28;20290;-62
2022/06/10 10:42:47;;;;;;;5.60;1.87;;;24.70;48.30;;;27.47;35.91;102063.38;4856561;28;20234;-60
2022/06/10 10:48:18;;;;;;;4.33;2.90;;;24.60;48.90;;;27.48;36.42;102078.56;5119554;27;20598;-61
2022/06/10 10:50:58;;;;;;;2.57;2.27;;;24.50;50.20;;;27.35;37.08;102085.13;5059534;28;20221;-60
2022/06/10 10:53:34;;;;;;;5.57;3.20;;;24.50;50.50;;;27.48;36.94;102083.97;5025490;28;20340;-60
2022/06/10 10:56:04;;;;;;;4.80;2.70;;;24.50;50.60;;;27.58;36.91;102075.94;5028070;28;20250;-61
2022/06/10 10:58:37;;;;;;;4.17;2.93;;;24.50;50.80;;;27.68;36.54;102073.34;4998483;28;20640;-62
2022/06/10 11:07:43;;;;;;;3.77;3.00;;;24.60;51.20;;;27.71;37.28;102083.66;5159526;27;20602;-59
2022/06/10 11:10:22;;;;;;;6.87;2.90;;;24.70;51.60;;;27.85;37.21;102068.63;5103756;28;20243;-60
2022/06/10 11:12:51;;;;;;;4.83;3.37;;;24.70;51.90;;;27.93;37.36;102075.47;5045465;28;20642;-63
2022/06/10 11:15:29;;;;;;;7.93;3.37;;;24.70;52.00;;;27.84;37.86;102077.81;5027418;28;20747;-61
2022/06/10 11:17:59;;;;;;;6.87;4.07;;;24.70;52.10;;;27.77;37.83;102088.03;4920039;28;20625;-59
2022/06/10 11:20:30;;;;;;;6.17;3.30;;;24.70;52.20;;;27.60;38.10;102079.19;4795434;29;20338;-61
2022/06/10 11:23:18;;;;;;;5.67;2.60;;;24.70;52.30;;;27.74;38.13;102080.41;4689040;30;20228;-60
2022/06/10 11:26:02;;;;;;;4.53;2.80;;;24.70;52.50;;;27.76;38.23;102075.59;4401058;31;20255;-61
2022/06/10 11:31:20;;;;;;;4.93;3.03;;;24.70;52.60;;;27.94;37.90;102077.91;5141379;27;20550;-64
2022/06/10 11:33:53;;;;;;;3.57;2.30;;;24.80;52.80;;;27.98;37.87;102076.31;5100725;28;20321;-63
2022/06/10 11:36:32;;;;;;;4.57;2.87;;;24.80;52.90;;;27.71;38.32;102083.66;5072947;28;20239;-62
2022/06/10 11:52:13;;;;;;;4.87;3.30;;;24.70;52.30;;;27.08;39.38;102083.41;5100681;27;20592;-62
2022/06/10 11:54:53;;;;;;;7.47;3.43;;;24.10;55.00;;;27.02;39.64;102070.91;5106755;27;20215;-61
2022/06/10 12:00:39;;;;;;;6.20;2.93;;;24.00;55.30;;;26.93;40.06;102070.53;5118366;28;20865;-58
2022/06/10 12:03:20;;;;;;;4.70;3.10;;;24.00;55.20;;;26.84;40.11;102063.91;5109634;27;20206;-61
2022/06/10 12:05:57;;;;;;;3.77;2.40;;;24.00;55.20;;;26.72;40.13;102063.19;5122357;28;20209;-61
2022/06/10 12:08:40;;;;;;;5.30;3.00;;;23.90;55.30;;;26.48;41.08;102067.94;5117478;28;20341;-59
2022/06/10 12:11:35;;;;;;;5.80;2.80;;;23.90;55.60;;;26.35;41.61;102068.31;5102775;28;20297;-61
2022/06/10 12:14:15;;;;;;;5.33;3.23;;;23.80;56.00;;;26.24;41.85;102065.69;5099971;28;20358;-63
2022/06/10 12:16:58;;;;;;;4.23;2.83;;;23.70;56.30;;;26.03;42.91;102059.13;5085748;27;20231;-61
2022/06/10 12:19:52;;;;;;;3.50;3.07;;;23.50;56.70;;;26.24;41.97;102052.19;5104585;28;20219;-61
2022/06/10 12:22:25;;;;;;;4.40;2.80;;;23.60;57.00;;;26.39;41.53;102058.63;5109613;28;20390;-64
2022/06/10 12:24:56;;;;;;;7.33;2.63;;;23.60;57.00;;;26.44;41.38;102053.31;5107584;28;20215;-61
2022/06/10 12:27:42;;;;;;;9.70;2.73;;;23.70;56.80;;;26.47;41.67;102055.53;5121474;28;20199;-61
2022/06/10 12:30:16;;;;;;;7.97;3.97;;;23.70;57.40;;;26.50;41.33;102059.63;5128969;27;20265;-63
2022/06/10 12:32:52;;;;;;;8.23;3.10;;;23.70;56.80;;;26.41;41.54;102061.91;5126992;27;20284;-61
2022/06/10 12:35:25;;;;;;;6.03;3.40;;;23.60;56.70;;;26.34;41.54;102055.84;5129579;28;20179;-61
2022/06/10 12:37:59;;;;;;;6.70;3.23;;;23.60;56.90;;;26.27;41.77;102055.19;5115167;27;20208;-65
2022/06/10 12:40:35;;;;;;;5.87;3.47;;;23.50;57.10;;;26.19;42.62;102052.94;5117534;27;20256;-64
2022/06/10 12:43:12;;;;;;;7.47;2.67;;;23.50;57.30;;;26.00;42.98;102056.91;5102592;28;20274;-62
2022/06/10 12:45:45;;;;;;;7.17;3.73;;;23.40;57.40;;;25.91;43.27;102045.66;5109495;28;20708;-60
2022/06/10 12:48:17;;;;;;;4.13;2.83;;;23.40;57.60;;;26.03;42.98;102053.72;5112810;28;20594;-62